James Turecamo — WDC7565 — position and weather

sailwx.info

Track history (hours):
 
Tides and Currents Weather Stations Pressure Air Temp Water Temp Dewpoint Dewpoint Depression Visibility Wind Speed Wind Dir Waves Ship Positions

James Turecamo

Owner: Moran Towing Corporation, New Canaan, CT. More information available from US FCC via Universal Licensing System and Coast Guard Vessel Documentation Center.

Last reported at 2016-May-01 08:28 UTC. Time now 2016-May-01 17:31 UTC.
Position N 40°38' W 074°08'.

Length 27 m; draft 4.5 m.

Type: Tug. MMSI: 367073380.

Date/timePositionNaut miles runAvg speedWind from/ knotsBaromVisibWave heightAir tempDewpointWater temp
2016-May-01 08:28N 40°38' W 074°08'0 0.0
2016-May-01 07:31N 40°38' W 074°08'0 0.0
2016-May-01 06:31N 40°38' W 074°08'1 1.1
2016-May-01 05:33N 40°39' W 074°09'0 0.1
2016-May-01 04:33N 40°39' W 074°09'3 2.3
2016-May-01 03:26N 40°38' W 074°12'4 5.1
2016-May-01 02:33N 40°39' W 074°06'4 4.3
2016-May-01 01:33N 40°40' W 074°01'5 5.3
2016-May-01 00:33N 40°38' W 074°08'0 0.0
2016-Apr-30 23:33N 40°38' W 074°08'0 0.0
2016-Apr-30 22:33N 40°38' W 074°08'0 0.0
2016-Apr-30 21:33N 40°38' W 074°08'0 0.0
2016-Apr-30 20:34N 40°38' W 074°08'5 5.2
2016-Apr-30 19:33N 40°40' W 074°01'0 0.2
2016-Apr-30 18:33N 40°40' W 074°01'5 5.4
2016-Apr-30 17:33N 40°38' W 074°08'0 0.0
2016-Apr-30 16:33N 40°38' W 074°08'0 0.0
2016-Apr-30 15:33N 40°38' W 074°08'0 0.0
2016-Apr-30 14:33N 40°38' W 074°08'0 0.0
2016-Apr-30 13:33N 40°38' W 074°08'0 0.0
2016-Apr-30 12:33N 40°38' W 074°08'0 0.0
2016-Apr-30 11:33N 40°38' W 074°08'3 3.1
2016-Apr-30 10:26N 40°38' W 074°12'3 2.9
2016-Apr-30 09:34N 40°39' W 074°09'1 1.0
2016-Apr-30 08:33N 40°38' W 074°08'0 0.0
2016-Apr-30 07:32N 40°38' W 074°08'0 0.0
2016-Apr-30 06:33N 40°38' W 074°08'0 0.0
2016-Apr-30 05:33N 40°38' W 074°08'0 0.0
2016-Apr-30 04:33N 40°38' W 074°08'0 0.0
2016-Apr-30 03:33N 40°38' W 074°08'0 0.0
2016-Apr-30 02:33N 40°38' W 074°08'0 0.0
2016-Apr-30 01:33N 40°38' W 074°08'0 0.0
2016-Apr-30 00:33N 40°38' W 074°08'0 0.0
2016-Apr-29 23:33N 40°38' W 074°08'0 0.0
2016-Apr-29 22:33N 40°38' W 074°08'0 0.0
2016-Apr-29 21:33N 40°38' W 074°08'0 0.0
2016-Apr-29 20:33N 40°38' W 074°08'0 0.0
2016-Apr-29 19:33N 40°38' W 074°08'0 0.0
2016-Apr-29 18:34N 40°38' W 074°08'1 1.0
2016-Apr-29 17:33N 40°39' W 074°07'2 1.6
2016-Apr-29 16:33N 40°39' W 074°05'7 2.4
2016-Apr-29 13:33N 40°46' W 074°01'8 8.4
2016-Apr-29 12:33N 40°39' W 074°07'1 0.7
2016-Apr-29 11:26N 40°39' W 074°06'2 1.9
2016-Apr-29 10:33N 40°38' W 074°03'4 4.2
2016-Apr-29 09:33N 40°40' W 074°09'4 4.1
2016-Apr-29 08:32N 40°39' W 074°03'3 0.8
2016-Apr-29 04:31N 40°38' W 074°08'0 0.0
2016-Apr-29 03:29N 40°38' W 074°08'0 0.0
2016-Apr-29 01:27N 40°38' W 074°08'0 0.0
2016-Apr-28 21:30N 40°38' W 074°08'0 0.0
2016-Apr-28 20:31N 40°38' W 074°08'0 0.0
2016-Apr-28 19:31N 40°38' W 074°08'6 6.6
2016-Apr-28 18:33N 40°41' W 074°00'3 3.3
2016-Apr-28 17:33N 40°39' W 074°03'3 3.3
2016-Apr-28 16:32N 40°38' W 074°08'0 0.0
2016-Apr-28 15:31N 40°38' W 074°08'0 0.0
2016-Apr-28 14:31N 40°38' W 074°08'0 0.0
2016-Apr-28 13:31N 40°38' W 074°08'0 0.0
2016-Apr-28 12:28N 40°38' W 074°08'0 0.0
2016-Apr-28 11:19N 40°38' W 074°08'3 1.5
2016-Apr-28 09:33N 40°41' W 074°08'5 4.5
2016-Apr-28 08:32N 40°45' W 074°06'2 0.9
2016-Apr-28 06:25N 40°47' W 074°05'3 3.2
2016-Apr-28 05:33N 40°44' W 074°05'3 2.6
2016-Apr-28 04:33N 40°43' W 074°07'2 2.1
2016-Apr-28 03:33N 40°41' W 074°08'4 1.3
2016-Apr-28 00:33N 40°38' W 074°12'3 3.2
2016-Apr-27 23:33N 40°38' W 074°08'1 0.9
2016-Apr-27 22:33N 40°38' W 074°09'5 4.7
2016-Apr-27 21:33N 40°37' W 074°03'5 4.7
2016-Apr-27 20:33N 40°38' W 074°09'1 1.0
2016-Apr-27 19:33N 40°40' W 074°09'2 2.5
2016-Apr-27 18:33N 40°39' W 074°06'2 1.7
2016-Apr-27 17:33N 40°38' W 074°08'0 0.0
2016-Apr-27 16:33N 40°38' W 074°08'1 1.0
2016-Apr-27 15:33N 40°39' W 074°07'1 1.0
2016-Apr-27 14:33N 40°38' W 074°08'0 0.2
2016-Apr-27 13:03N 40°39' W 074°08'3 3.1
2016-Apr-27 12:13N 40°40' W 074°05'2 2.6
2016-Apr-27 11:33N 40°39' W 074°06'1 1.2
2016-Apr-27 10:31N 40°38' W 074°08'0 0.0
2016-Apr-27 09:31N 40°38' W 074°08'0 0.0
2016-Apr-27 08:28N 40°38' W 074°08'1 1.5
2016-Apr-27 07:31N 40°39' W 074°06'1 1.5
2016-Apr-27 06:33N 40°38' W 074°08'0 0.0
2016-Apr-27 05:33N 40°38' W 074°08'0 0.0
2016-Apr-27 04:33N 40°38' W 074°08'0 0.0
2016-Apr-27 03:33N 40°38' W 074°08'2 2.2
2016-Apr-27 02:33N 40°39' W 074°05'2 2.2
2016-Apr-27 01:33N 40°38' W 074°08'0 0.0
2016-Apr-27 00:33N 40°38' W 074°08'3 2.5
2016-Apr-26 23:30N 40°39' W 074°11'1 0.4
2016-Apr-26 20:10N 40°37' W 074°12'3 4.8
2016-Apr-26 19:33N 40°39' W 074°09'3 2.7
2016-Apr-26 18:33N 40°42' W 074°08'1 0.6
2016-Apr-26 17:33N 40°41' W 074°08'3 2.7
2016-Apr-26 16:33N 40°38' W 074°08'0 0.0
2016-Apr-26 15:33N 40°38' W 074°08'1 0.6
2016-Apr-26 14:33N 40°39' W 074°07'1 0.6
2016-Apr-26 13:33N 40°38' W 074°08'5 5.3
2016-Apr-26 12:33N 40°40' W 074°01'2 2.4
2016-Apr-26 11:33N 40°39' W 074°04'3 2.8
2016-Apr-26 10:31N 40°38' W 074°08'0 0.0
2016-Apr-26 09:34N 40°38' W 074°08'2 2.0
2016-Apr-26 08:33N 40°40' W 074°08'6 6.0
2016-Apr-26 07:32N 40°46' W 074°05'1 0.5
2016-Apr-26 05:27N 40°47' W 074°05'2 2.3
2016-Apr-26 04:30N 40°45' W 074°05'3 3.2
2016-Apr-26 03:33N 40°42' W 074°07'2 1.4
2016-Apr-26 02:19N 40°44' W 074°07'6 7.6
2016-Apr-26 01:33N 40°38' W 074°08'0 0.0
2016-Apr-26 00:34N 40°38' W 074°08'0 0.0
2016-Apr-25 23:33N 40°38' W 074°08'3 2.3
2016-Apr-25 22:20N 40°41' W 074°08'3 3.9
2016-Apr-25 21:34N 40°39' W 074°05'1 1.1
2016-Apr-25 20:33N 40°39' W 074°04'3 3.0
2016-Apr-25 19:33N 40°38' W 074°08'0 0.0
2016-Apr-25 18:19N 40°38' W 074°08'0 0.0
2016-Apr-25 17:32N 40°38' W 074°08'0 0.0
2016-Apr-25 16:33N 40°38' W 074°08'2 1.6
2016-Apr-25 15:34N 40°39' W 074°06'1 0.9
2016-Apr-25 14:34N 40°39' W 074°05'2 2.4
2016-Apr-25 13:33N 40°38' W 074°08'0 0.0
2016-Apr-25 12:34N 40°38' W 074°08'0 0.0
2016-Apr-25 11:24N 40°38' W 074°08'6 6.7
2016-Apr-25 10:34N 40°41' W 074°01'3 2.8
2016-Apr-25 09:33N 40°39' W 074°03'4 3.5
2016-Apr-25 08:34N 40°38' W 074°08'0 0.0
2016-Apr-25 07:34N 40°38' W 074°08'0 0.0
2016-Apr-25 06:33N 40°38' W 074°08'0 0.0
2016-Apr-25 05:33N 40°38' W 074°08'1 0.4
2016-Apr-25 03:34N 40°39' W 074°07'2 2.2
2016-Apr-25 02:34N 40°39' W 074°04'3 2.9
2016-Apr-25 01:34N 40°38' W 074°08'0 0.0
2016-Apr-25 00:33N 40°38' W 074°08'0 0.0
2016-Apr-24 23:34N 40°38' W 074°08'0 0.0
2016-Apr-24 22:34N 40°38' W 074°08'0 0.0
2016-Apr-24 20:25N 40°38' W 074°08'0 0.0
2016-Apr-24 19:33N 40°38' W 074°08'0 0.0
2016-Apr-24 18:33N 40°38' W 074°08'0 0.0
2016-Apr-24 17:34N 40°38' W 074°08'0 0.0
2016-Apr-24 16:34N 40°38' W 074°08'3 1.0
2016-Apr-24 13:33N 40°38' W 074°12'3 3.1
2016-Apr-24 12:33N 40°38' W 074°08'0 0.0
2016-Apr-24 08:13N 40°38' W 074°08'0 0.0
2016-Apr-24 07:30N 40°38' W 074°08'0 0.0
2016-Apr-24 02:33N 40°38' W 074°08'0 0.0
2016-Apr-24 01:30N 40°38' W 074°08'0 0.0
2016-Apr-24 00:33N 40°38' W 074°08'0 0.0
2016-Apr-23 20:33N 40°38' W 074°08'0 0.0
2016-Apr-23 19:33N 40°38' W 074°08'0 0.0
2016-Apr-23 18:33N 40°38' W 074°08'0 0.0
2016-Apr-23 17:33N 40°38' W 074°08'0 0.0
2016-Apr-23 16:27N 40°38' W 074°08'0 0.0
2016-Apr-23 15:33N 40°38' W 074°08'0 0.0
2016-Apr-23 14:33N 40°38' W 074°08'0 0.0
2016-Apr-23 13:33N 40°38' W 074°08'0 0.0
2016-Apr-23 12:32N 40°38' W 074°08'0 0.0
2016-Apr-23 11:33N 40°38' W 074°08'0 0.0
2016-Apr-23 10:32N 40°38' W 074°08'0 0.0
2016-Apr-23 09:33N 40°38' W 074°08'0 0.0
2016-Apr-23 08:33N 40°38' W 074°08'0 0.0
2016-Apr-23 07:33N 40°38' W 074°08'0 0.0
2016-Apr-23 06:33N 40°38' W 074°08'0 0.0
2016-Apr-23 05:33N 40°38' W 074°08'3 2.7
2016-Apr-23 04:33N 40°39' W 074°11'1 0.3
2016-Apr-23 02:30N 40°38' W 074°12'3 3.2
2016-Apr-23 01:33N 40°38' W 074°08'0 0.0
2016-Apr-23 00:25N 40°38' W 074°08'0 0.0
2016-Apr-22 23:30N 40°38' W 074°08'1 0.8
2016-Apr-22 21:33N 40°39' W 074°10'2 2.2
2016-Apr-22 20:33N 40°39' W 074°07'1 0.8
2016-Apr-22 19:30N 40°38' W 074°08'0 0.0
2016-Apr-22 18:33N 40°38' W 074°08'0 0.0
2016-Apr-22 17:32N 40°38' W 074°08'0 0.0
2016-Apr-22 16:33N 40°38' W 074°08'0 0.0
2016-Apr-22 13:23N 40°38' W 074°08'0 0.0
2016-Apr-22 12:33N 40°38' W 074°08'0 0.0
2016-Apr-22 11:25N 40°38' W 074°08'0 0.0
2016-Apr-22 10:33N 40°38' W 074°08'0 0.0
2016-Apr-22 09:33N 40°38' W 074°08'0 0.0
2016-Apr-21 21:29N 40°38' W 074°08'0 0.0
2016-Apr-21 20:33N 40°38' W 074°08'0 0.0
2016-Apr-21 19:33N 40°38' W 074°08'0 0.0
2016-Apr-21 18:33N 40°38' W 074°08'0 0.0
2016-Apr-21 17:33N 40°38' W 074°08'0 0.0
2016-Apr-21 16:33N 40°38' W 074°08'4 1.5
2016-Apr-21 14:06N 40°37' W 074°12'4 5.3
2016-Apr-21 13:26N 40°38' W 074°08'0 0.0
2016-Apr-21 11:15N 40°38' W 074°08'0 0.0
2016-Apr-21 10:33N 40°38' W 074°08'0 0.0
2016-Apr-21 09:33N 40°38' W 074°08'  
Track history (hours):
 
Tides and Currents Weather Stations Pressure Air Temp Water Temp Dewpoint Dewpoint Depression Visibility Wind Speed Wind Dir Waves Ship Positions

James Turecamo

Owner: Moran Towing Corporation, New Canaan, CT. More information available from US FCC via Universal Licensing System and Coast Guard Vessel Documentation Center.

Last reported at 2016-May-01 08:28 UTC. Time now 2016-May-01 17:31 UTC.
Position N 40°38' W 074°08'.

Length 27 m; draft 4.5 m.

Type: Tug. MMSI: 367073380.

Date/timePositionNaut miles runAvg speedWind from/ knotsBaromVisibWave heightAir tempDewpointWater temp
2016-May-01 08:28N 40°38' W 074°08'0 0.0
2016-May-01 07:31N 40°38' W 074°08'0 0.0
2016-May-01 06:31N 40°38' W 074°08'1 1.1
2016-May-01 05:33N 40°39' W 074°09'0 0.1
2016-May-01 04:33N 40°39' W 074°09'3 2.3
2016-May-01 03:26N 40°38' W 074°12'4 5.1
2016-May-01 02:33N 40°39' W 074°06'4 4.3
2016-May-01 01:33N 40°40' W 074°01'5 5.3
2016-May-01 00:33N 40°38' W 074°08'0 0.0
2016-Apr-30 23:33N 40°38' W 074°08'0 0.0
2016-Apr-30 22:33N 40°38' W 074°08'0 0.0
2016-Apr-30 21:33N 40°38' W 074°08'0 0.0
2016-Apr-30 20:34N 40°38' W 074°08'5 5.2
2016-Apr-30 19:33N 40°40' W 074°01'0 0.2
2016-Apr-30 18:33N 40°40' W 074°01'5 5.4
2016-Apr-30 17:33N 40°38' W 074°08'0 0.0
2016-Apr-30 16:33N 40°38' W 074°08'0 0.0
2016-Apr-30 15:33N 40°38' W 074°08'0 0.0
2016-Apr-30 14:33N 40°38' W 074°08'0 0.0
2016-Apr-30 13:33N 40°38' W 074°08'0 0.0
2016-Apr-30 12:33N 40°38' W 074°08'0 0.0
2016-Apr-30 11:33N 40°38' W 074°08'3 3.1
2016-Apr-30 10:26N 40°38' W 074°12'3 2.9
2016-Apr-30 09:34N 40°39' W 074°09'1 1.0
2016-Apr-30 08:33N 40°38' W 074°08'0 0.0
2016-Apr-30 07:32N 40°38' W 074°08'0 0.0
2016-Apr-30 06:33N 40°38' W 074°08'0 0.0
2016-Apr-30 05:33N 40°38' W 074°08'0 0.0
2016-Apr-30 04:33N 40°38' W 074°08'0 0.0
2016-Apr-30 03:33N 40°38' W 074°08'0 0.0
2016-Apr-30 02:33N 40°38' W 074°08'0 0.0
2016-Apr-30 01:33N 40°38' W 074°08'0 0.0
2016-Apr-30 00:33N 40°38' W 074°08'0 0.0
2016-Apr-29 23:33N 40°38' W 074°08'0 0.0
2016-Apr-29 22:33N 40°38' W 074°08'0 0.0
2016-Apr-29 21:33N 40°38' W 074°08'0 0.0
2016-Apr-29 20:33N 40°38' W 074°08'0 0.0
2016-Apr-29 19:33N 40°38' W 074°08'0 0.0
2016-Apr-29 18:34N 40°38' W 074°08'1 1.0
2016-Apr-29 17:33N 40°39' W 074°07'2 1.6
2016-Apr-29 16:33N 40°39' W 074°05'7 2.4
2016-Apr-29 13:33N 40°46' W 074°01'8 8.4
2016-Apr-29 12:33N 40°39' W 074°07'1 0.7
2016-Apr-29 11:26N 40°39' W 074°06'2 1.9
2016-Apr-29 10:33N 40°38' W 074°03'4 4.2
2016-Apr-29 09:33N 40°40' W 074°09'4 4.1
2016-Apr-29 08:32N 40°39' W 074°03'3 0.8
2016-Apr-29 04:31N 40°38' W 074°08'0 0.0
2016-Apr-29 03:29N 40°38' W 074°08'0 0.0
2016-Apr-29 01:27N 40°38' W 074°08'0 0.0
2016-Apr-28 21:30N 40°38' W 074°08'0 0.0
2016-Apr-28 20:31N 40°38' W 074°08'0 0.0
2016-Apr-28 19:31N 40°38' W 074°08'6 6.6
2016-Apr-28 18:33N 40°41' W 074°00'3 3.3
2016-Apr-28 17:33N 40°39' W 074°03'3 3.3
2016-Apr-28 16:32N 40°38' W 074°08'0 0.0
2016-Apr-28 15:31N 40°38' W 074°08'0 0.0
2016-Apr-28 14:31N 40°38' W 074°08'0 0.0
2016-Apr-28 13:31N 40°38' W 074°08'0 0.0
2016-Apr-28 12:28N 40°38' W 074°08'0 0.0
2016-Apr-28 11:19N 40°38' W 074°08'3 1.5
2016-Apr-28 09:33N 40°41' W 074°08'5 4.5
2016-Apr-28 08:32N 40°45' W 074°06'2 0.9
2016-Apr-28 06:25N 40°47' W 074°05'3 3.2
2016-Apr-28 05:33N 40°44' W 074°05'3 2.6
2016-Apr-28 04:33N 40°43' W 074°07'2 2.1
2016-Apr-28 03:33N 40°41' W 074°08'4 1.3
2016-Apr-28 00:33N 40°38' W 074°12'3 3.2
2016-Apr-27 23:33N 40°38' W 074°08'1 0.9
2016-Apr-27 22:33N 40°38' W 074°09'5 4.7
2016-Apr-27 21:33N 40°37' W 074°03'5 4.7
2016-Apr-27 20:33N 40°38' W 074°09'1 1.0
2016-Apr-27 19:33N 40°40' W 074°09'2 2.5
2016-Apr-27 18:33N 40°39' W 074°06'2 1.7
2016-Apr-27 17:33N 40°38' W 074°08'0 0.0
2016-Apr-27 16:33N 40°38' W 074°08'1 1.0
2016-Apr-27 15:33N 40°39' W 074°07'1 1.0
2016-Apr-27 14:33N 40°38' W 074°08'0 0.2
2016-Apr-27 13:03N 40°39' W 074°08'3 3.1
2016-Apr-27 12:13N 40°40' W 074°05'2 2.6
2016-Apr-27 11:33N 40°39' W 074°06'1 1.2
2016-Apr-27 10:31N 40°38' W 074°08'0 0.0
2016-Apr-27 09:31N 40°38' W 074°08'0 0.0
2016-Apr-27 08:28N 40°38' W 074°08'1 1.5
2016-Apr-27 07:31N 40°39' W 074°06'1 1.5
2016-Apr-27 06:33N 40°38' W 074°08'0 0.0
2016-Apr-27 05:33N 40°38' W 074°08'0 0.0
2016-Apr-27 04:33N 40°38' W 074°08'0 0.0
2016-Apr-27 03:33N 40°38' W 074°08'2 2.2
2016-Apr-27 02:33N 40°39' W 074°05'2 2.2
2016-Apr-27 01:33N 40°38' W 074°08'0 0.0
2016-Apr-27 00:33N 40°38' W 074°08'3 2.5
2016-Apr-26 23:30N 40°39' W 074°11'1 0.4
2016-Apr-26 20:10N 40°37' W 074°12'3 4.8
2016-Apr-26 19:33N 40°39' W 074°09'3 2.7
2016-Apr-26 18:33N 40°42' W 074°08'1 0.6
2016-Apr-26 17:33N 40°41' W 074°08'3 2.7
2016-Apr-26 16:33N 40°38' W 074°08'0 0.0
2016-Apr-26 15:33N 40°38' W 074°08'1 0.6
2016-Apr-26 14:33N 40°39' W 074°07'1 0.6
2016-Apr-26 13:33N 40°38' W 074°08'5 5.3
2016-Apr-26 12:33N 40°40' W 074°01'2 2.4
2016-Apr-26 11:33N 40°39' W 074°04'3 2.8
2016-Apr-26 10:31N 40°38' W 074°08'0 0.0
2016-Apr-26 09:34N 40°38' W 074°08'2 2.0
2016-Apr-26 08:33N 40°40' W 074°08'6 6.0
2016-Apr-26 07:32N 40°46' W 074°05'1 0.5
2016-Apr-26 05:27N 40°47' W 074°05'2 2.3
2016-Apr-26 04:30N 40°45' W 074°05'3 3.2
2016-Apr-26 03:33N 40°42' W 074°07'2 1.4
2016-Apr-26 02:19N 40°44' W 074°07'6 7.6
2016-Apr-26 01:33N 40°38' W 074°08'0 0.0
2016-Apr-26 00:34N 40°38' W 074°08'0 0.0
2016-Apr-25 23:33N 40°38' W 074°08'3 2.3
2016-Apr-25 22:20N 40°41' W 074°08'3 3.9
2016-Apr-25 21:34N 40°39' W 074°05'1 1.1
2016-Apr-25 20:33N 40°39' W 074°04'3 3.0
2016-Apr-25 19:33N 40°38' W 074°08'0 0.0
2016-Apr-25 18:19N 40°38' W 074°08'0 0.0
2016-Apr-25 17:32N 40°38' W 074°08'0 0.0
2016-Apr-25 16:33N 40°38' W 074°08'2 1.6
2016-Apr-25 15:34N 40°39' W 074°06'1 0.9
2016-Apr-25 14:34N 40°39' W 074°05'2 2.4
2016-Apr-25 13:33N 40°38' W 074°08'0 0.0
2016-Apr-25 12:34N 40°38' W 074°08'0 0.0
2016-Apr-25 11:24N 40°38' W 074°08'6 6.7
2016-Apr-25 10:34N 40°41' W 074°01'3 2.8
2016-Apr-25 09:33N 40°39' W 074°03'4 3.5
2016-Apr-25 08:34N 40°38' W 074°08'0 0.0
2016-Apr-25 07:34N 40°38' W 074°08'0 0.0
2016-Apr-25 06:33N 40°38' W 074°08'0 0.0
2016-Apr-25 05:33N 40°38' W 074°08'1 0.4
2016-Apr-25 03:34N 40°39' W 074°07'2 2.2
2016-Apr-25 02:34N 40°39' W 074°04'3 2.9
2016-Apr-25 01:34N 40°38' W 074°08'0 0.0
2016-Apr-25 00:33N 40°38' W 074°08'0 0.0
2016-Apr-24 23:34N 40°38' W 074°08'0 0.0
2016-Apr-24 22:34N 40°38' W 074°08'0 0.0
2016-Apr-24 20:25N 40°38' W 074°08'0 0.0
2016-Apr-24 19:33N 40°38' W 074°08'0 0.0
2016-Apr-24 18:33N 40°38' W 074°08'0 0.0
2016-Apr-24 17:34N 40°38' W 074°08'0 0.0
2016-Apr-24 16:34N 40°38' W 074°08'3 1.0
2016-Apr-24 13:33N 40°38' W 074°12'3 3.1
2016-Apr-24 12:33N 40°38' W 074°08'0 0.0
2016-Apr-24 08:13N 40°38' W 074°08'0 0.0
2016-Apr-24 07:30N 40°38' W 074°08'0 0.0
2016-Apr-24 02:33N 40°38' W 074°08'0 0.0
2016-Apr-24 01:30N 40°38' W 074°08'0 0.0
2016-Apr-24 00:33N 40°38' W 074°08'0 0.0
2016-Apr-23 20:33N 40°38' W 074°08'0 0.0
2016-Apr-23 19:33N 40°38' W 074°08'0 0.0
2016-Apr-23 18:33N 40°38' W 074°08'0 0.0
2016-Apr-23 17:33N 40°38' W 074°08'0 0.0
2016-Apr-23 16:27N 40°38' W 074°08'0 0.0
2016-Apr-23 15:33N 40°38' W 074°08'0 0.0
2016-Apr-23 14:33N 40°38' W 074°08'0 0.0
2016-Apr-23 13:33N 40°38' W 074°08'0 0.0
2016-Apr-23 12:32N 40°38' W 074°08'0 0.0
2016-Apr-23 11:33N 40°38' W 074°08'0 0.0
2016-Apr-23 10:32N 40°38' W 074°08'0 0.0
2016-Apr-23 09:33N 40°38' W 074°08'0 0.0
2016-Apr-23 08:33N 40°38' W 074°08'0 0.0
2016-Apr-23 07:33N 40°38' W 074°08'0 0.0
2016-Apr-23 06:33N 40°38' W 074°08'0 0.0
2016-Apr-23 05:33N 40°38' W 074°08'3 2.7
2016-Apr-23 04:33N 40°39' W 074°11'1 0.3
2016-Apr-23 02:30N 40°38' W 074°12'3 3.2
2016-Apr-23 01:33N 40°38' W 074°08'0 0.0
2016-Apr-23 00:25N 40°38' W 074°08'0 0.0
2016-Apr-22 23:30N 40°38' W 074°08'1 0.8
2016-Apr-22 21:33N 40°39' W 074°10'2 2.2
2016-Apr-22 20:33N 40°39' W 074°07'1 0.8
2016-Apr-22 19:30N 40°38' W 074°08'0 0.0
2016-Apr-22 18:33N 40°38' W 074°08'0 0.0
2016-Apr-22 17:32N 40°38' W 074°08'0 0.0
2016-Apr-22 16:33N 40°38' W 074°08'0 0.0
2016-Apr-22 13:23N 40°38' W 074°08'0 0.0
2016-Apr-22 12:33N 40°38' W 074°08'0 0.0
2016-Apr-22 11:25N 40°38' W 074°08'0 0.0
2016-Apr-22 10:33N 40°38' W 074°08'0 0.0
2016-Apr-22 09:33N 40°38' W 074°08'0 0.0
2016-Apr-21 21:29N 40°38' W 074°08'0 0.0
2016-Apr-21 20:33N 40°38' W 074°08'0 0.0
2016-Apr-21 19:33N 40°38' W 074°08'0 0.0
2016-Apr-21 18:33N 40°38' W 074°08'0 0.0
2016-Apr-21 17:33N 40°38' W 074°08'0 0.0
2016-Apr-21 16:33N 40°38' W 074°08'4 1.5
2016-Apr-21 14:06N 40°37' W 074°12'4 5.3
2016-Apr-21 13:26N 40°38' W 074°08'0 0.0
2016-Apr-21 11:15N 40°38' W 074°08'0 0.0
2016-Apr-21 10:33N 40°38' W 074°08'0 0.0
2016-Apr-21 09:33N 40°38' W 074°08'  

Dump ship's entire track history